sensor_id;sensor_type;location;lat;lon;timestamp;P1;durP1;ratioP1;P2;durP2;ratioP2
30370;SDS011;17164;48.590;11.410;2023-04-29T00:01:08;0.90;;;0.63;;
30370;SDS011;17164;48.590;11.410;2023-04-29T00:03:34;1.00;;;0.60;;
30370;SDS011;17164;48.590;11.410;2023-04-29T00:06:00;1.47;;;0.67;;
30370;SDS011;17164;48.590;11.410;2023-04-29T00:08:26;1.03;;;0.57;;
30370;SDS011;17164;48.590;11.410;2023-04-29T00:10:52;1.90;;;0.83;;
30370;SDS011;17164;48.590;11.410;2023-04-29T00:13:18;1.27;;;0.60;;
30370;SDS011;17164;48.590;11.410;2023-04-29T00:15:43;2.90;;;0.70;;
30370;SDS011;17164;48.590;11.410;2023-04-29T00:18:09;0.73;;;0.50;;
30370;SDS011;17164;48.590;11.410;2023-04-29T00:20:35;1.23;;;0.70;;
30370;SDS011;17164;48.590;11.410;2023-04-29T00:23:02;0.63;;;0.60;;
30370;SDS011;17164;48.590;11.410;2023-04-29T00:25:28;0.50;;;0.50;;
30370;SDS011;17164;48.590;11.410;2023-04-29T00:27:54;0.73;;;0.57;;
30370;SDS011;17164;48.590;11.410;2023-04-29T00:30:20;2.53;;;0.70;;
30370;SDS011;17164;48.590;11.410;2023-04-29T00:32:46;2.30;;;0.90;;
30370;SDS011;17164;48.590;11.410;2023-04-29T00:35:11;3.73;;;0.80;;
30370;SDS011;17164;48.590;11.410;2023-04-29T00:37:37;0.77;;;0.60;;
30370;SDS011;17164;48.590;11.410;2023-04-29T00:40:03;0.63;;;0.57;;
30370;SDS011;17164;48.590;11.410;2023-04-29T00:42:30;0.60;;;0.57;;
30370;SDS011;17164;48.590;11.410;2023-04-29T00:44:57;1.30;;;0.60;;
30370;SDS011;17164;48.590;11.410;2023-04-29T00:47:23;1.63;;;0.70;;
30370;SDS011;17164;48.590;11.410;2023-04-29T00:49:49;1.10;;;0.63;;
30370;SDS011;17164;48.590;11.410;2023-04-29T00:52:15;0.70;;;0.60;;
30370;SDS011;17164;48.590;11.410;2023-04-29T00:54:42;1.27;;;0.70;;
30370;SDS011;17164;48.590;11.410;2023-04-29T00:57:08;1.40;;;0.80;;
30370;SDS011;17164;48.590;11.410;2023-04-29T00:59:34;1.10;;;0.87;;
30370;SDS011;17164;48.590;11.410;2023-04-29T01:02:00;1.63;;;0.73;;
30370;SDS011;17164;48.590;11.410;2023-04-29T01:04:27;0.77;;;0.70;;
30370;SDS011;17164;48.590;11.410;2023-04-29T01:12:20;1.00;;;0.70;;
30370;SDS011;17164;48.590;11.410;2023-04-29T01:15:03;0.93;;;0.73;;
30370;SDS011;17164;48.590;11.410;2023-04-29T01:17:34;0.87;;;0.70;;
30370;SDS011;17164;48.590;11.410;2023-04-29T01:20:03;1.57;;;0.80;;
30370;SDS011;17164;48.590;11.410;2023-04-29T01:22:30;2.17;;;0.70;;
30370;SDS011;17164;48.590;11.410;2023-04-29T01:24:56;2.07;;;0.90;;
30370;SDS011;17164;48.590;11.410;2023-04-29T01:27:36;0.97;;;0.80;;
30370;SDS011;17164;48.590;11.410;2023-04-29T01:33:31;1.13;;;0.88;;
30370;SDS011;17164;48.590;11.410;2023-04-29T01:36:15;1.83;;;0.97;;
30370;SDS011;17164;48.590;11.410;2023-04-29T01:41:42;1.60;;;0.60;;
30370;SDS011;17164;48.590;11.410;2023-04-29T01:44:12;1.60;;;0.90;;
30370;SDS011;17164;48.590;11.410;2023-04-29T01:46:41;0.80;;;0.57;;
30370;SDS011;17164;48.590;11.410;2023-04-29T01:49:11;0.93;;;0.80;;
30370;SDS011;17164;48.590;11.410;2023-04-29T01:51:37;1.23;;;1.03;;
30370;SDS011;17164;48.590;11.410;2023-04-29T01:54:02;3.73;;;0.97;;
30370;SDS011;17164;48.590;11.410;2023-04-29T01:56:29;1.90;;;0.80;;
30370;SDS011;17164;48.590;11.410;2023-04-29T01:58:54;1.57;;;0.80;;
30370;SDS011;17164;48.590;11.410;2023-04-29T02:01:20;2.53;;;1.20;;
30370;SDS011;17164;48.590;11.410;2023-04-29T02:03:46;2.83;;;0.83;;
30370;SDS011;17164;48.590;11.410;2023-04-29T02:06:11;2.30;;;1.23;;
30370;SDS011;17164;48.590;11.410;2023-04-29T02:08:37;1.23;;;1.00;;
30370;SDS011;17164;48.590;11.410;2023-04-29T02:11:02;2.20;;;1.30;;
30370;SDS011;17164;48.590;11.410;2023-04-29T02:13:28;2.90;;;1.23;;
30370;SDS011;17164;48.590;11.410;2023-04-29T02:15:54;3.80;;;1.27;;
30370;SDS011;17164;48.590;11.410;2023-04-29T02:18:19;2.67;;;1.07;;
30370;SDS011;17164;48.590;11.410;2023-04-29T02:20:45;1.60;;;1.10;;
30370;SDS011;17164;48.590;11.410;2023-04-29T02:23:10;2.20;;;1.10;;
30370;SDS011;17164;48.590;11.410;2023-04-29T02:25:36;1.70;;;1.00;;
30370;SDS011;17164;48.590;11.410;2023-04-29T02:28:02;5.43;;;1.40;;
30370;SDS011;17164;48.590;11.410;2023-04-29T02:30:27;1.87;;;1.20;;
30370;SDS011;17164;48.590;11.410;2023-04-29T02:32:54;2.70;;;1.10;;
30370;SDS011;17164;48.590;11.410;2023-04-29T02:35:19;2.20;;;1.30;;
30370;SDS011;17164;48.590;11.410;2023-04-29T02:37:45;2.67;;;1.23;;
30370;SDS011;17164;48.590;11.410;2023-04-29T02:40:11;6.93;;;1.37;;
30370;SDS011;17164;48.590;11.410;2023-04-29T02:42:37;1.63;;;1.33;;
30370;SDS011;17164;48.590;11.410;2023-04-29T02:45:02;2.60;;;1.33;;
30370;SDS011;17164;48.590;11.410;2023-04-29T02:47:28;2.90;;;1.17;;
30370;SDS011;17164;48.590;11.410;2023-04-29T02:49:54;2.70;;;1.37;;
30370;SDS011;17164;48.590;11.410;2023-04-29T02:52:20;3.77;;;1.10;;
30370;SDS011;17164;48.590;11.410;2023-04-29T02:54:45;1.90;;;1.50;;
30370;SDS011;17164;48.590;11.410;2023-04-29T02:57:11;1.40;;;1.23;;
30370;SDS011;17164;48.590;11.410;2023-04-29T02:59:36;3.07;;;1.80;;
30370;SDS011;17164;48.590;11.410;2023-04-29T03:02:02;3.87;;;1.80;;
30370;SDS011;17164;48.590;11.410;2023-04-29T03:04:28;3.33;;;1.73;;
30370;SDS011;17164;48.590;11.410;2023-04-29T03:06:54;4.10;;;1.87;;
30370;SDS011;17164;48.590;11.410;2023-04-29T03:09:23;2.57;;;1.83;;
30370;SDS011;17164;48.590;11.410;2023-04-29T03:11:48;2.93;;;1.90;;
30370;SDS011;17164;48.590;11.410;2023-04-29T03:14:14;2.63;;;1.83;;
30370;SDS011;17164;48.590;11.410;2023-04-29T03:16:40;1.93;;;1.60;;
30370;SDS011;17164;48.590;11.410;2023-04-29T03:19:05;2.67;;;1.67;;
30370;SDS011;17164;48.590;11.410;2023-04-29T03:21:31;2.40;;;1.77;;
30370;SDS011;17164;48.590;11.410;2023-04-29T03:23:56;3.10;;;1.80;;
30370;SDS011;17164;48.590;11.410;2023-04-29T03:26:22;3.27;;;2.00;;
30370;SDS011;17164;48.590;11.410;2023-04-29T03:28:49;3.17;;;2.33;;
30370;SDS011;17164;48.590;11.410;2023-04-29T03:31:15;4.43;;;3.00;;
30370;SDS011;17164;48.590;11.410;2023-04-29T03:33:41;3.30;;;2.30;;
30370;SDS011;17164;48.590;11.410;2023-04-29T03:36:07;3.87;;;2.73;;
30370;SDS011;17164;48.590;11.410;2023-04-29T03:38:32;4.33;;;3.33;;
30370;SDS011;17164;48.590;11.410;2023-04-29T03:40:58;5.10;;;3.30;;
30370;SDS011;17164;48.590;11.410;2023-04-29T03:43:24;3.83;;;2.73;;
30370;SDS011;17164;48.590;11.410;2023-04-29T03:45:50;5.67;;;3.50;;
30370;SDS011;17164;48.590;11.410;2023-04-29T03:48:16;7.27;;;3.10;;
30370;SDS011;17164;48.590;11.410;2023-04-29T03:50:42;4.00;;;3.10;;
30370;SDS011;17164;48.590;11.410;2023-04-29T03:53:08;4.70;;;3.10;;
30370;SDS011;17164;48.590;11.410;2023-04-29T03:55:34;4.47;;;3.23;;
30370;SDS011;17164;48.590;11.410;2023-04-29T03:57:59;4.83;;;3.10;;
30370;SDS011;17164;48.590;11.410;2023-04-29T04:00:25;6.47;;;4.17;;
30370;SDS011;17164;48.590;11.410;2023-04-29T04:02:54;7.53;;;4.00;;
30370;SDS011;17164;48.590;11.410;2023-04-29T04:05:21;6.77;;;3.97;;
30370;SDS011;17164;48.590;11.410;2023-04-29T04:07:49;6.73;;;4.27;;
30370;SDS011;17164;48.590;11.410;2023-04-29T04:10:15;6.13;;;3.77;;
30370;SDS011;17164;48.590;11.410;2023-04-29T04:12:41;4.90;;;3.60;;
30370;SDS011;17164;48.590;11.410;2023-04-29T04:15:06;7.00;;;4.30;;
30370;SDS011;17164;48.590;11.410;2023-04-29T04:17:32;5.03;;;3.67;;
30370;SDS011;17164;48.590;11.410;2023-04-29T04:19:58;5.93;;;3.70;;
30370;SDS011;17164;48.590;11.410;2023-04-29T04:22:23;7.00;;;4.40;;
30370;SDS011;17164;48.590;11.410;2023-04-29T04:24:49;5.23;;;3.90;;
30370;SDS011;17164;48.590;11.410;2023-04-29T04:27:14;7.87;;;4.17;;
30370;SDS011;17164;48.590;11.410;2023-04-29T04:29:40;5.63;;;3.90;;
30370;SDS011;17164;48.590;11.410;2023-04-29T04:32:06;5.77;;;4.17;;
30370;SDS011;17164;48.590;11.410;2023-04-29T04:34:31;8.73;;;4.80;;
30370;SDS011;17164;48.590;11.410;2023-04-29T04:36:57;6.37;;;4.63;;
30370;SDS011;17164;48.590;11.410;2023-04-29T04:39:23;5.97;;;4.40;;
30370;SDS011;17164;48.590;11.410;2023-04-29T04:41:48;6.23;;;4.27;;
30370;SDS011;17164;48.590;11.410;2023-04-29T04:44:14;5.90;;;4.23;;
30370;SDS011;17164;48.590;11.410;2023-04-29T04:46:40;8.30;;;4.23;;
30370;SDS011;17164;48.590;11.410;2023-04-29T04:49:07;6.23;;;3.83;;
30370;SDS011;17164;48.590;11.410;2023-04-29T04:51:32;6.10;;;4.60;;
30370;SDS011;17164;48.590;11.410;2023-04-29T04:53:58;6.33;;;4.53;;
30370;SDS011;17164;48.590;11.410;2023-04-29T04:56:23;5.10;;;3.80;;
30370;SDS011;17164;48.590;11.410;2023-04-29T04:58:49;6.70;;;4.97;;
30370;SDS011;17164;48.590;11.410;2023-04-29T05:01:15;5.80;;;4.53;;
30370;SDS011;17164;48.590;11.410;2023-04-29T05:03:40;5.67;;;4.40;;
30370;SDS011;17164;48.590;11.410;2023-04-29T05:06:06;8.50;;;4.67;;
30370;SDS011;17164;48.590;11.410;2023-04-29T05:08:32;6.67;;;4.90;;
30370;SDS011;17164;48.590;11.410;2023-04-29T05:10:57;8.20;;;5.50;;
30370;SDS011;17164;48.590;11.410;2023-04-29T05:13:23;7.97;;;5.07;;
30370;SDS011;17164;48.590;11.410;2023-04-29T05:15:49;5.83;;;4.77;;
30370;SDS011;17164;48.590;11.410;2023-04-29T05:18:15;8.97;;;5.23;;
30370;SDS011;17164;48.590;11.410;2023-04-29T05:20:41;8.27;;;5.20;;
30370;SDS011;17164;48.590;11.410;2023-04-29T05:23:06;6.17;;;4.57;;
30370;SDS011;17164;48.590;11.410;2023-04-29T05:25:32;6.93;;;4.93;;
30370;SDS011;17164;48.590;11.410;2023-04-29T05:27:58;7.17;;;4.83;;
30370;SDS011;17164;48.590;11.410;2023-04-29T05:30:24;8.80;;;5.23;;
30370;SDS011;17164;48.590;11.410;2023-04-29T05:32:49;7.23;;;5.00;;
30370;SDS011;17164;48.590;11.410;2023-04-29T05:35:15;8.50;;;5.30;;
30370;SDS011;17164;48.590;11.410;2023-04-29T05:37:41;7.03;;;5.20;;
30370;SDS011;17164;48.590;11.410;2023-04-29T05:40:07;8.80;;;5.03;;
30370;SDS011;17164;48.590;11.410;2023-04-29T05:42:33;9.33;;;6.07;;
30370;SDS011;17164;48.590;11.410;2023-04-29T05:44:59;7.53;;;5.33;;
30370;SDS011;17164;48.590;11.410;2023-04-29T05:47:24;8.40;;;5.83;;
30370;SDS011;17164;48.590;11.410;2023-04-29T05:49:50;7.30;;;6.03;;
30370;SDS011;17164;48.590;11.410;2023-04-29T05:52:16;10.80;;;6.13;;
30370;SDS011;17164;48.590;11.410;2023-04-29T05:54:42;6.70;;;5.43;;
30370;SDS011;17164;48.590;11.410;2023-04-29T05:57:07;10.00;;;6.17;;
30370;SDS011;17164;48.590;11.410;2023-04-29T05:59:33;10.63;;;5.73;;
30370;SDS011;17164;48.590;11.410;2023-04-29T06:01:58;8.00;;;6.00;;
30370;SDS011;17164;48.590;11.410;2023-04-29T06:04:24;7.87;;;5.90;;
30370;SDS011;17164;48.590;11.410;2023-04-29T06:06:51;7.60;;;5.63;;
30370;SDS011;17164;48.590;11.410;2023-04-29T06:09:17;6.83;;;5.10;;
30370;SDS011;17164;48.590;11.410;2023-04-29T06:11:44;6.67;;;5.57;;
30370;SDS011;17164;48.590;11.410;2023-04-29T06:14:13;7.73;;;6.07;;
30370;SDS011;17164;48.590;11.410;2023-04-29T06:16:39;8.53;;;6.00;;
30370;SDS011;17164;48.590;11.410;2023-04-29T06:19:04;7.70;;;6.07;;
30370;SDS011;17164;48.590;11.410;2023-04-29T06:21:30;9.57;;;6.53;;
30370;SDS011;17164;48.590;11.410;2023-04-29T06:23:56;7.93;;;6.27;;
30370;SDS011;17164;48.590;11.410;2023-04-29T06:26:22;8.90;;;7.37;;
30370;SDS011;17164;48.590;11.410;2023-04-29T06:28:48;9.00;;;7.10;;
30370;SDS011;17164;48.590;11.410;2023-04-29T06:31:13;9.10;;;6.67;;
30370;SDS011;17164;48.590;11.410;2023-04-29T06:33:39;11.43;;;7.53;;
30370;SDS011;17164;48.590;11.410;2023-04-29T06:36:05;9.43;;;7.67;;
30370;SDS011;17164;48.590;11.410;2023-04-29T06:38:31;9.93;;;7.13;;
30370;SDS011;17164;48.590;11.410;2023-04-29T06:40:57;11.43;;;7.20;;
30370;SDS011;17164;48.590;11.410;2023-04-29T06:43:25;8.33;;;6.87;;
30370;SDS011;17164;48.590;11.410;2023-04-29T06:45:51;9.77;;;7.00;;
30370;SDS011;17164;48.590;11.410;2023-04-29T06:48:16;8.73;;;7.27;;
30370;SDS011;17164;48.590;11.410;2023-04-29T06:50:52;9.27;;;6.70;;
30370;SDS011;17164;48.590;11.410;2023-04-29T06:53:19;10.17;;;7.73;;
30370;SDS011;17164;48.590;11.410;2023-04-29T06:55:45;11.87;;;8.50;;
30370;SDS011;17164;48.590;11.410;2023-04-29T06:58:20;10.37;;;7.50;;
30370;SDS011;17164;48.590;11.410;2023-04-29T07:00:46;9.67;;;7.70;;
30370;SDS011;17164;48.590;11.410;2023-04-29T07:03:13;11.03;;;7.93;;
30370;SDS011;17164;48.590;11.410;2023-04-29T07:05:39;11.40;;;8.17;;
30370;SDS011;17164;48.590;11.410;2023-04-29T07:08:06;10.37;;;7.87;;
30370;SDS011;17164;48.590;11.410;2023-04-29T07:10:32;11.03;;;8.80;;
30370;SDS011;17164;48.590;11.410;2023-04-29T07:12:58;11.00;;;8.10;;
30370;SDS011;17164;48.590;11.410;2023-04-29T07:15:27;11.33;;;7.77;;
30370;SDS011;17164;48.590;11.410;2023-04-29T07:17:54;11.60;;;8.70;;
30370;SDS011;17164;48.590;11.410;2023-04-29T07:20:20;10.17;;;8.13;;
30370;SDS011;17164;48.590;11.410;2023-04-29T07:22:46;10.00;;;8.13;;
30370;SDS011;17164;48.590;11.410;2023-04-29T07:25:12;11.17;;;8.17;;
30370;SDS011;17164;48.590;11.410;2023-04-29T07:27:38;11.73;;;8.57;;
30370;SDS011;17164;48.590;11.410;2023-04-29T07:30:04;12.40;;;8.07;;
30370;SDS011;17164;48.590;11.410;2023-04-29T07:32:30;14.47;;;8.60;;
30370;SDS011;17164;48.590;11.410;2023-04-29T07:34:57;12.83;;;8.40;;
30370;SDS011;17164;48.590;11.410;2023-04-29T07:37:23;8.77;;;7.03;;
30370;SDS011;17164;48.590;11.410;2023-04-29T07:39:49;9.40;;;7.33;;
30370;SDS011;17164;48.590;11.410;2023-04-29T07:42:15;10.23;;;6.97;;
30370;SDS011;17164;48.590;11.410;2023-04-29T07:44:40;8.40;;;7.07;;
30370;SDS011;17164;48.590;11.410;2023-04-29T07:47:06;8.30;;;6.10;;
30370;SDS011;17164;48.590;11.410;2023-04-29T07:49:31;12.60;;;5.87;;
30370;SDS011;17164;48.590;11.410;2023-04-29T07:51:57;6.33;;;5.10;;
30370;SDS011;17164;48.590;11.410;2023-04-29T07:54:23;8.27;;;5.57;;
30370;SDS011;17164;48.590;11.410;2023-04-29T07:56:48;7.40;;;4.80;;
30370;SDS011;17164;48.590;11.410;2023-04-29T07:59:14;5.40;;;4.50;;
30370;SDS011;17164;48.590;11.410;2023-04-29T08:01:40;6.57;;;4.53;;
30370;SDS011;17164;48.590;11.410;2023-04-29T08:04:06;5.70;;;3.93;;
30370;SDS011;17164;48.590;11.410;2023-04-29T08:06:32;6.83;;;4.50;;
30370;SDS011;17164;48.590;11.410;2023-04-29T08:08:58;5.03;;;3.80;;
30370;SDS011;17164;48.590;11.410;2023-04-29T08:11:24;6.03;;;4.20;;
30370;SDS011;17164;48.590;11.410;2023-04-29T08:13:50;6.30;;;4.00;;
30370;SDS011;17164;48.590;11.410;2023-04-29T08:16:16;6.77;;;4.70;;
30370;SDS011;17164;48.590;11.410;2023-04-29T08:18:42;5.30;;;4.10;;
30370;SDS011;17164;48.590;11.410;2023-04-29T08:21:08;4.93;;;3.57;;
30370;SDS011;17164;48.590;11.410;2023-04-29T08:23:36;4.40;;;3.40;;
30370;SDS011;17164;48.590;11.410;2023-04-29T08:26:02;4.43;;;3.30;;
30370;SDS011;17164;48.590;11.410;2023-04-29T08:28:28;3.80;;;2.50;;
30370;SDS011;17164;48.590;11.410;2023-04-29T08:30:53;4.73;;;2.50;;
30370;SDS011;17164;48.590;11.410;2023-04-29T08:33:19;3.90;;;2.50;;
30370;SDS011;17164;48.590;11.410;2023-04-29T08:35:46;3.33;;;2.53;;
30370;SDS011;17164;48.590;11.410;2023-04-29T08:38:11;2.33;;;2.13;;
30370;SDS011;17164;48.590;11.410;2023-04-29T08:40:41;3.53;;;2.30;;
30370;SDS011;17164;48.590;11.410;2023-04-29T08:43:08;8.80;;;2.10;;
30370;SDS011;17164;48.590;11.410;2023-04-29T08:45:34;3.30;;;1.87;;
30370;SDS011;17164;48.590;11.410;2023-04-29T08:48:01;3.20;;;1.77;;
30370;SDS011;17164;48.590;11.410;2023-04-29T08:50:30;1.67;;;1.40;;
30370;SDS011;17164;48.590;11.410;2023-04-29T08:52:57;3.07;;;1.80;;
30370;SDS011;17164;48.590;11.410;2023-04-29T08:55:23;3.23;;;2.00;;
30370;SDS011;17164;48.590;11.410;2023-04-29T08:57:49;2.53;;;1.70;;
30370;SDS011;17164;48.590;11.410;2023-04-29T09:00:16;3.83;;;1.60;;
30370;SDS011;17164;48.590;11.410;2023-04-29T09:02:44;2.17;;;1.63;;
30370;SDS011;17164;48.590;11.410;2023-04-29T09:05:14;2.13;;;1.40;;
30370;SDS011;17164;48.590;11.410;2023-04-29T09:07:40;1.90;;;1.20;;
30370;SDS011;17164;48.590;11.410;2023-04-29T09:10:06;1.93;;;1.50;;
30370;SDS011;17164;48.590;11.410;2023-04-29T09:12:33;2.20;;;1.60;;
30370;SDS011;17164;48.590;11.410;2023-04-29T09:15:00;2.17;;;1.43;;
30370;SDS011;17164;48.590;11.410;2023-04-29T09:17:45;2.17;;;1.77;;
30370;SDS011;17164;48.590;11.410;2023-04-29T09:22:47;1.97;;;1.50;;
30370;SDS011;17164;48.590;11.410;2023-04-29T09:25:13;2.27;;;1.10;;
30370;SDS011;17164;48.590;11.410;2023-04-29T09:27:39;4.97;;;1.57;;
30370;SDS011;17164;48.590;11.410;2023-04-29T09:30:06;2.10;;;1.00;;
30370;SDS011;17164;48.590;11.410;2023-04-29T09:32:32;2.30;;;0.90;;
30370;SDS011;17164;48.590;11.410;2023-04-29T09:34:57;4.30;;;1.13;;
30370;SDS011;17164;48.590;11.410;2023-04-29T09:37:24;9.17;;;1.20;;
30370;SDS011;17164;48.590;11.410;2023-04-29T09:39:51;1.90;;;1.00;;
30370;SDS011;17164;48.590;11.410;2023-04-29T09:42:18;3.07;;;1.33;;
30370;SDS011;17164;48.590;11.410;2023-04-29T09:44:44;2.00;;;1.10;;
30370;SDS011;17164;48.590;11.410;2023-04-29T09:47:09;1.30;;;1.00;;
30370;SDS011;17164;48.590;11.410;2023-04-29T09:49:39;0.70;;;0.70;;
30370;SDS011;17164;48.590;11.410;2023-04-29T09:54:38;3.23;;;0.90;;
30370;SDS011;17164;48.590;11.410;2023-04-29T09:57:05;1.37;;;0.87;;
30370;SDS011;17164;48.590;11.410;2023-04-29T09:59:32;0.97;;;0.73;;
30370;SDS011;17164;48.590;11.410;2023-04-29T10:02:00;0.80;;;0.80;;
30370;SDS011;17164;48.590;11.410;2023-04-29T10:04:31;1.63;;;0.80;;
30370;SDS011;17164;48.590;11.410;2023-04-29T10:06:59;1.60;;;0.90;;
30370;SDS011;17164;48.590;11.410;2023-04-29T10:09:25;1.37;;;0.83;;
30370;SDS011;17164;48.590;11.410;2023-04-29T10:11:52;1.10;;;1.00;;
30370;SDS011;17164;48.590;11.410;2023-04-29T10:14:19;1.53;;;1.13;;
30370;SDS011;17164;48.590;11.410;2023-04-29T10:19:24;3.67;;;1.10;;
30370;SDS011;17164;48.590;11.410;2023-04-29T10:21:57;1.83;;;1.10;;
30370;SDS011;17164;48.590;11.410;2023-04-29T10:24:29;2.83;;;0.80;;
30370;SDS011;17164;48.590;11.410;2023-04-29T10:26:56;1.70;;;1.10;;
30370;SDS011;17164;48.590;11.410;2023-04-29T10:29:23;1.90;;;1.00;;
30370;SDS011;17164;48.590;11.410;2023-04-29T10:31:52;2.57;;;0.97;;
30370;SDS011;17164;48.590;11.410;2023-04-29T10:34:19;1.77;;;1.13;;
30370;SDS011;17164;48.590;11.410;2023-04-29T10:36:47;1.37;;;1.10;;
30370;SDS011;17164;48.590;11.410;2023-04-29T10:39:15;0.90;;;0.80;;
30370;SDS011;17164;48.590;11.410;2023-04-29T10:41:51;1.10;;;1.00;;
30370;SDS011;17164;48.590;11.410;2023-04-29T10:44:18;1.57;;;1.17;;
30370;SDS011;17164;48.590;11.410;2023-04-29T10:46:43;2.07;;;1.20;;
30370;SDS011;17164;48.590;11.410;2023-04-29T10:49:09;3.40;;;1.07;;
30370;SDS011;17164;48.590;11.410;2023-04-29T10:51:39;2.23;;;1.43;;
30370;SDS011;17164;48.590;11.410;2023-04-29T10:56:48;1.53;;;1.00;;
30370;SDS011;17164;48.590;11.410;2023-04-29T10:59:15;2.13;;;1.20;;
30370;SDS011;17164;48.590;11.410;2023-04-29T11:01:49;2.50;;;1.67;;
30370;SDS011;17164;48.590;11.410;2023-04-29T11:04:16;2.17;;;1.10;;
30370;SDS011;17164;48.590;11.410;2023-04-29T11:06:44;4.10;;;1.10;;
30370;SDS011;17164;48.590;11.410;2023-04-29T11:14:23;1.93;;;1.03;;
30370;SDS011;17164;48.590;11.410;2023-04-29T11:16:57;1.53;;;1.10;;
30370;SDS011;17164;48.590;11.410;2023-04-29T11:19:25;4.27;;;0.80;;
30370;SDS011;17164;48.590;11.410;2023-04-29T11:22:06;1.93;;;1.10;;
30370;SDS011;17164;48.590;11.410;2023-04-29T11:24:34;1.07;;;0.97;;
30370;SDS011;17164;48.590;11.410;2023-04-29T11:27:02;1.00;;;0.80;;
30370;SDS011;17164;48.590;11.410;2023-04-29T11:29:29;1.13;;;1.00;;
30370;SDS011;17164;48.590;11.410;2023-04-29T11:32:02;0.60;;;0.60;;
30370;SDS011;17164;48.590;11.410;2023-04-29T11:34:28;2.03;;;0.67;;
30370;SDS011;17164;48.590;11.410;2023-04-29T11:36:53;1.57;;;0.80;;
30370;SDS011;17164;48.590;11.410;2023-04-29T11:39:19;2.43;;;0.90;;
30370;SDS011;17164;48.590;11.410;2023-04-29T11:41:45;2.57;;;0.90;;
30370;SDS011;17164;48.590;11.410;2023-04-29T11:44:10;1.60;;;1.10;;
30370;SDS011;17164;48.590;11.410;2023-04-29T11:46:36;1.67;;;0.80;;
30370;SDS011;17164;48.590;11.410;2023-04-29T11:49:02;1.23;;;0.90;;
30370;SDS011;17164;48.590;11.410;2023-04-29T11:51:27;1.13;;;0.87;;
30370;SDS011;17164;48.590;11.410;2023-04-29T11:53:53;1.13;;;0.87;;
30370;SDS011;17164;48.590;11.410;2023-04-29T11:56:21;1.50;;;0.80;;
30370;SDS011;17164;48.590;11.410;2023-04-29T11:58:54;1.23;;;0.73;;
30370;SDS011;17164;48.590;11.410;2023-04-29T12:01:22;2.33;;;0.70;;
30370;SDS011;17164;48.590;11.410;2023-04-29T12:03:49;0.67;;;0.60;;
30370;SDS011;17164;48.590;11.410;2023-04-29T12:06:14;1.53;;;0.50;;
30370;SDS011;17164;48.590;11.410;2023-04-29T12:08:40;0.87;;;0.80;;
30370;SDS011;17164;48.590;11.410;2023-04-29T12:11:06;1.43;;;1.00;;
30370;SDS011;17164;48.590;11.410;2023-04-29T12:13:32;1.10;;;0.80;;
30370;SDS011;17164;48.590;11.410;2023-04-29T12:16:01;1.23;;;0.80;;
30370;SDS011;17164;48.590;11.410;2023-04-29T12:18:28;3.60;;;1.20;;
30370;SDS011;17164;48.590;11.410;2023-04-29T12:20:55;1.57;;;1.03;;
30370;SDS011;17164;48.590;11.410;2023-04-29T12:23:21;1.77;;;0.90;;
30370;SDS011;17164;48.590;11.410;2023-04-29T12:25:56;1.87;;;1.20;;
30370;SDS011;17164;48.590;11.410;2023-04-29T12:28:23;2.70;;;1.00;;
30370;SDS011;17164;48.590;11.410;2023-04-29T12:30:50;3.20;;;1.70;;
30370;SDS011;17164;48.590;11.410;2023-04-29T12:33:28;1.90;;;1.40;;
30370;SDS011;17164;48.590;11.410;2023-04-29T12:35:54;1.63;;;0.97;;
30370;SDS011;17164;48.590;11.410;2023-04-29T12:38:25;2.50;;;1.00;;
30370;SDS011;17164;48.590;11.410;2023-04-29T12:40:52;1.53;;;1.00;;
30370;SDS011;17164;48.590;11.410;2023-04-29T12:43:24;1.00;;;0.90;;
30370;SDS011;17164;48.590;11.410;2023-04-29T12:46:14;2.03;;;1.00;;
30370;SDS011;17164;48.590;11.410;2023-04-29T12:48:39;1.30;;;1.20;;
30370;SDS011;17164;48.590;11.410;2023-04-29T12:51:09;4.73;;;1.20;;
30370;SDS011;17164;48.590;11.410;2023-04-29T12:53:35;2.20;;;1.47;;
30370;SDS011;17164;48.590;11.410;2023-04-29T12:56:01;1.47;;;1.00;;
30370;SDS011;17164;48.590;11.410;2023-04-29T12:58:27;2.60;;;1.20;;
30370;SDS011;17164;48.590;11.410;2023-04-29T13:00:54;4.80;;;0.93;;
30370;SDS011;17164;48.590;11.410;2023-04-29T13:03:20;1.83;;;1.10;;
30370;SDS011;17164;48.590;11.410;2023-04-29T13:05:45;2.83;;;1.33;;
30370;SDS011;17164;48.590;11.410;2023-04-29T13:08:14;1.60;;;1.10;;
30370;SDS011;17164;48.590;11.410;2023-04-29T13:10:40;1.03;;;0.93;;
30370;SDS011;17164;48.590;11.410;2023-04-29T13:13:06;1.47;;;1.10;;
30370;SDS011;17164;48.590;11.410;2023-04-29T13:15:33;4.17;;;1.30;;
30370;SDS011;17164;48.590;11.410;2023-04-29T13:17:59;2.17;;;1.20;;
30370;SDS011;17164;48.590;11.410;2023-04-29T13:20:25;1.70;;;1.00;;
30370;SDS011;17164;48.590;11.410;2023-04-29T13:22:51;1.13;;;0.93;;
30370;SDS011;17164;48.590;11.410;2023-04-29T13:25:17;1.00;;;0.90;;
30370;SDS011;17164;48.590;11.410;2023-04-29T13:27:43;1.53;;;0.93;;
30370;SDS011;17164;48.590;11.410;2023-04-29T13:30:08;1.53;;;0.90;;
30370;SDS011;17164;48.590;11.410;2023-04-29T13:32:34;1.60;;;1.20;;
30370;SDS011;17164;48.590;11.410;2023-04-29T13:35:01;1.20;;;1.00;;
30370;SDS011;17164;48.590;11.410;2023-04-29T13:37:26;2.80;;;1.20;;
30370;SDS011;17164;48.590;11.410;2023-04-29T13:39:52;1.37;;;1.20;;
30370;SDS011;17164;48.590;11.410;2023-04-29T13:42:18;2.00;;;1.30;;
30370;SDS011;17164;48.590;11.410;2023-04-29T13:44:43;2.83;;;1.20;;
30370;SDS011;17164;48.590;11.410;2023-04-29T13:47:12;1.60;;;1.23;;
30370;SDS011;17164;48.590;11.410;2023-04-29T13:49:41;2.60;;;1.40;;
30370;SDS011;17164;48.590;11.410;2023-04-29T13:52:10;3.97;;;1.10;;
30370;SDS011;17164;48.590;11.410;2023-04-29T13:54:36;2.13;;;1.20;;
30370;SDS011;17164;48.590;11.410;2023-04-29T13:57:02;1.03;;;0.93;;
30370;SDS011;17164;48.590;11.410;2023-04-29T13:59:32;1.20;;;1.10;;
30370;SDS011;17164;48.590;11.410;2023-04-29T14:01:58;1.73;;;1.30;;
30370;SDS011;17164;48.590;11.410;2023-04-29T14:04:25;4.97;;;1.27;;
30370;SDS011;17164;48.590;11.410;2023-04-29T14:06:51;3.53;;;1.57;;
30370;SDS011;17164;48.590;11.410;2023-04-29T14:09:17;2.17;;;1.30;;
30370;SDS011;17164;48.590;11.410;2023-04-29T14:11:44;3.17;;;1.40;;
30370;SDS011;17164;48.590;11.410;2023-04-29T14:14:10;2.83;;;1.80;;
30370;SDS011;17164;48.590;11.410;2023-04-29T14:16:35;2.47;;;1.80;;
30370;SDS011;17164;48.590;11.410;2023-04-29T14:19:01;2.83;;;1.77;;
30370;SDS011;17164;48.590;11.410;2023-04-29T14:21:28;4.40;;;1.77;;
30370;SDS011;17164;48.590;11.410;2023-04-29T14:23:53;3.87;;;1.90;;
30370;SDS011;17164;48.590;11.410;2023-04-29T14:26:19;1.97;;;1.40;;
30370;SDS011;17164;48.590;11.410;2023-04-29T14:28:45;3.30;;;1.90;;
30370;SDS011;17164;48.590;11.410;2023-04-29T14:31:10;2.57;;;1.83;;
30370;SDS011;17164;48.590;11.410;2023-04-29T14:33:37;3.43;;;2.10;;
30370;SDS011;17164;48.590;11.410;2023-04-29T14:36:05;3.17;;;1.63;;
30370;SDS011;17164;48.590;11.410;2023-04-29T14:38:31;3.40;;;1.83;;
30370;SDS011;17164;48.590;11.410;2023-04-29T14:40:57;2.93;;;1.80;;
30370;SDS011;17164;48.590;11.410;2023-04-29T14:43:22;2.63;;;1.33;;
30370;SDS011;17164;48.590;11.410;2023-04-29T14:45:48;2.90;;;1.50;;
30370;SDS011;17164;48.590;11.410;2023-04-29T14:48:14;4.10;;;1.40;;
30370;SDS011;17164;48.590;11.410;2023-04-29T14:50:39;3.23;;;1.70;;
30370;SDS011;17164;48.590;11.410;2023-04-29T14:53:05;3.13;;;1.70;;
30370;SDS011;17164;48.590;11.410;2023-04-29T14:55:32;2.57;;;1.90;;
30370;SDS011;17164;48.590;11.410;2023-04-29T14:57:58;2.73;;;2.00;;